createdAt,value
2019-02-06T00:05:16.275Z,102055.95
2019-02-06T00:08:20.735Z,102058.09
2019-02-06T00:11:24.394Z,102062.97
2019-02-06T00:14:48.501Z,102057.42
2019-02-06T00:17:51.957Z,102053.59
2019-02-06T00:20:55.347Z,102061.30
2019-02-06T00:24:18.160Z,102062.29
2019-02-06T00:27:21.989Z,102059.35
2019-02-06T00:33:49.728Z,102054.25
2019-02-06T00:36:53.383Z,102062.46
2019-02-06T00:39:56.863Z,102058.50
2019-02-06T00:43:00.328Z,102062.41
2019-02-06T00:46:03.793Z,102061.66
2019-02-06T00:49:07.199Z,102062.92
2019-02-06T00:52:10.592Z,102060.66
2019-02-06T00:55:35.014Z,102066.42
2019-02-06T00:58:38.416Z,102069.13
2019-02-06T01:01:41.983Z,102057.93
2019-02-06T01:04:45.617Z,102064.36
2019-02-06T01:07:49.258Z,102055.36
2019-02-06T01:10:52.646Z,102050.48
2019-02-06T01:13:56.400Z,102054.63
2019-02-06T01:16:59.805Z,102048.70
2019-02-06T01:20:22.603Z,102043.29
2019-02-06T01:23:26.331Z,102041.45
2019-02-06T01:26:29.718Z,102051.93
2019-02-06T01:29:33.127Z,102055.38
2019-02-06T01:32:36.543Z,102053.20
2019-02-06T01:35:49.668Z,102055.58
2019-02-06T01:38:45.370Z,102054.09
2019-02-06T01:41:48.766Z,102051.28
2019-02-06T01:44:52.166Z,102050.33
2019-02-06T01:47:55.587Z,102054.19
2019-02-06T01:50:58.981Z,102050.64
2019-02-06T01:54:02.379Z,102041.80
2019-02-06T01:57:25.137Z,102044.11
2019-02-06T02:00:28.780Z,102040.97
2019-02-06T02:03:32.567Z,102041.06
2019-02-06T02:06:35.957Z,102033.48
2019-02-06T02:09:39.429Z,102023.98
2019-02-06T02:12:43.358Z,102021.73
2019-02-06T02:15:46.765Z,102017.62
2019-02-06T02:18:50.143Z,102016.20
2019-02-06T02:21:53.998Z,102021.45
2019-02-06T02:24:57.646Z,102010.69
2019-02-06T02:28:01.275Z,102014.27
2019-02-06T02:31:06.590Z,102015.25
2019-02-06T02:34:10.021Z,102008.94
2019-02-06T02:37:13.843Z,101996.55
2019-02-06T02:40:18.860Z,101996.25
2019-02-06T02:43:22.568Z,101991.52
2019-02-06T02:46:25.979Z,101981.00
2019-02-06T02:49:31.089Z,101984.80
2019-02-06T02:52:34.493Z,101976.84
2019-02-06T02:55:37.899Z,101975.47
2019-02-06T02:58:43.265Z,101972.64
2019-02-06T03:08:07.874Z,101967.71
2019-02-06T03:11:11.406Z,101962.58
2019-02-06T03:14:14.834Z,101961.23
2019-02-06T03:17:18.354Z,101965.03
2019-02-06T03:20:21.812Z,101946.75
2019-02-06T03:23:25.482Z,101951.54
2019-02-06T03:26:28.887Z,101951.18
2019-02-06T03:29:32.286Z,101946.57
2019-02-06T03:32:35.944Z,101933.45
2019-02-06T03:35:39.329Z,101929.31
2019-02-06T03:38:42.970Z,101936.58
2019-02-06T03:41:46.388Z,101927.05
2019-02-06T03:44:49.783Z,101928.20
2019-02-06T03:47:53.438Z,101925.72
2019-02-06T03:50:56.892Z,101916.70
2019-02-06T03:54:00.479Z,101918.47
2019-02-06T03:57:03.880Z,101917.55
2019-02-06T04:00:26.644Z,101916.03
2019-02-06T04:03:30.417Z,101918.44
2019-02-06T04:06:35.761Z,101913.37
2019-02-06T04:09:39.408Z,101914.23
2019-02-06T04:12:42.882Z,101908.73
2019-02-06T04:15:48.240Z,101911.84
2019-02-06T04:18:51.896Z,101904.97
2019-02-06T04:21:55.541Z,101902.94
2019-02-06T04:25:00.669Z,101905.23
2019-02-06T04:28:04.071Z,101910.27
2019-02-06T04:31:07.464Z,101908.44
2019-02-06T04:34:11.157Z,101909.52
2019-02-06T04:37:14.536Z,101908.57
2019-02-06T04:40:38.972Z,101896.95
2019-02-06T04:43:42.377Z,101908.50
2019-02-06T04:46:45.761Z,101903.36
2019-02-06T04:49:49.415Z,101893.09
2019-02-06T04:52:53.040Z,101896.86
2019-02-06T04:55:56.434Z,101896.95
2019-02-06T04:58:59.921Z,101892.13
2019-02-06T05:02:22.634Z,101887.63
2019-02-06T05:05:26.040Z,101885.42
2019-02-06T05:08:29.440Z,101882.20
2019-02-06T05:11:32.827Z,101888.82
2019-02-06T05:14:36.239Z,101880.48
2019-02-06T05:17:39.948Z,101884.92
2019-02-06T05:20:43.357Z,101886.11
2019-02-06T05:23:46.759Z,101885.91
2019-02-06T05:26:50.166Z,101886.11
2019-02-06T05:29:53.850Z,101883.21
2019-02-06T05:32:57.618Z,101872.84
2019-02-06T05:36:09.981Z,101873.38
2019-02-06T05:39:13.403Z,101875.05
2019-02-06T05:42:17.075Z,101883.15
2019-02-06T05:45:20.824Z,101866.19
2019-02-06T05:48:24.493Z,101856.72
2019-02-06T05:51:27.966Z,101856.14
2019-02-06T05:54:31.372Z,101854.31
2019-02-06T05:57:34.789Z,101854.55
2019-02-06T06:00:40.235Z,101855.40
2019-02-06T06:03:43.630Z,101859.53
2019-02-06T06:06:47.029Z,101846.04
2019-02-06T06:09:51.709Z,101842.14
2019-02-06T06:12:55.443Z,101835.28
2019-02-06T06:15:59.187Z,101827.02
2019-02-06T06:19:02.907Z,101826.63
2019-02-06T06:22:06.703Z,101830.53
2019-02-06T06:25:12.750Z,101827.45
2019-02-06T06:28:16.476Z,101827.72
2019-02-06T06:31:19.882Z,101817.72
2019-02-06T06:34:23.276Z,101824.02
2019-02-06T06:37:26.681Z,101824.14
2019-02-06T06:40:30.100Z,101817.73
2019-02-06T06:43:33.781Z,101821.80
2019-02-06T06:46:37.210Z,101830.39
2019-02-06T06:49:40.600Z,101827.95
2019-02-06T06:52:44.006Z,101824.88
2019-02-06T06:55:47.414Z,101818.47
2019-02-06T06:58:50.875Z,101818.31
2019-02-06T07:01:54.273Z,101812.28
2019-02-06T07:04:57.667Z,101814.97
2019-02-06T07:08:09.346Z,101803.73
2019-02-06T07:11:06.527Z,101804.92
2019-02-06T07:14:09.960Z,101814.00
2019-02-06T07:17:13.562Z,101823.55
2019-02-06T07:20:18.914Z,101827.79
2019-02-06T07:23:22.321Z,101826.44
2019-02-06T07:26:25.738Z,101825.08
2019-02-06T07:29:29.202Z,101823.75
2019-02-06T07:32:32.618Z,101813.06
2019-02-06T07:35:36.021Z,101816.90
2019-02-06T07:38:39.738Z,101824.87
2019-02-06T07:41:43.144Z,101822.52
2019-02-06T07:44:46.798Z,101833.00
2019-02-06T07:47:50.356Z,101839.55
2019-02-06T07:50:53.778Z,101840.56
2019-02-06T07:53:57.170Z,101837.65
2019-02-06T07:57:00.646Z,101831.23
2019-02-06T08:00:06.998Z,101827.06
2019-02-06T08:03:10.887Z,101822.87
2019-02-06T08:06:14.490Z,101822.02
2019-02-06T08:09:17.893Z,101828.62
2019-02-06T08:12:21.350Z,101827.93
2019-02-06T08:15:25.259Z,101824.95
2019-02-06T08:18:28.725Z,101821.51
2019-02-06T08:21:32.135Z,101818.08
2019-02-06T08:24:35.978Z,101819.41
2019-02-06T08:27:39.370Z,101811.90
2019-02-06T08:30:43.011Z,101810.34
2019-02-06T08:33:46.789Z,101815.02
2019-02-06T08:36:50.184Z,101822.85
2019-02-06T08:39:53.836Z,101818.94
2019-02-06T08:42:57.431Z,101807.70
2019-02-06T08:46:00.828Z,101809.64
2019-02-06T08:49:04.670Z,101807.15
2019-02-06T08:52:08.082Z,101810.70
2019-02-06T08:55:14.921Z,101800.19
2019-02-06T08:58:18.423Z,101802.36
2019-02-06T09:01:21.811Z,101797.74
2019-02-06T09:04:25.216Z,101791.40
2019-02-06T09:07:28.594Z,101787.97
2019-02-06T09:10:32.547Z,101783.98
2019-02-06T09:13:35.992Z,101783.86
2019-02-06T09:16:39.380Z,101781.78
2019-02-06T09:19:42.846Z,101773.46
2019-02-06T09:22:46.550Z,101770.45
2019-02-06T09:25:49.957Z,101763.98
2019-02-06T09:28:53.611Z,101758.44
2019-02-06T09:31:59.362Z,101749.10
2019-02-06T09:35:02.436Z,101747.81
2019-02-06T09:38:06.156Z,101748.63
2019-02-06T09:41:09.930Z,101761.91
2019-02-06T09:44:13.655Z,101764.44
2019-02-06T09:47:17.078Z,101772.63
2019-02-06T09:50:22.768Z,101768.30
2019-02-06T09:53:26.921Z,101774.40
2019-02-06T09:56:30.550Z,101772.70
2019-02-06T09:59:33.959Z,101780.34
2019-02-06T10:02:37.379Z,101788.44
2019-02-06T10:05:40.782Z,101789.02
2019-02-06T10:08:44.172Z,101791.98
2019-02-06T10:11:47.823Z,101786.14
2019-02-06T10:14:51.217Z,101795.75
2019-02-06T10:17:55.339Z,101798.20
2019-02-06T10:20:58.749Z,101789.31
2019-02-06T10:24:02.203Z,101790.70
2019-02-06T10:27:05.676Z,101807.45
2019-02-06T10:30:12.565Z,101814.20
2019-02-06T10:33:18.685Z,101814.41
2019-02-06T10:36:21.343Z,101805.91
2019-02-06T10:39:34.362Z,101805.27
2019-02-06T10:42:30.152Z,101800.52
2019-02-06T10:45:33.618Z,101802.49
2019-02-06T10:48:37.012Z,101814.67
2019-02-06T10:51:40.413Z,101813.28
2019-02-06T10:54:43.835Z,101815.17
2019-02-06T10:57:47.559Z,101819.17
2019-02-06T11:00:54.014Z,101813.17
2019-02-06T11:03:57.408Z,101814.61
2019-02-06T11:07:01.102Z,101816.44
2019-02-06T11:10:07.447Z,101808.94
2019-02-06T11:13:11.039Z,101797.91
2019-02-06T11:16:14.454Z,101790.30
2019-02-06T11:19:17.860Z,101784.02
2019-02-06T11:22:21.327Z,101768.14
2019-02-06T11:25:26.443Z,101766.32
2019-02-06T11:28:30.178Z,101758.63
2019-02-06T11:31:33.599Z,101745.09
2019-02-06T11:34:36.986Z,101748.66
2019-02-06T11:37:40.537Z,101738.45
2019-02-06T11:40:43.919Z,101734.84
2019-02-06T11:43:47.732Z,101744.14
2019-02-06T11:46:51.187Z,101731.60
2019-02-06T11:49:56.469Z,101737.42
2019-02-06T11:53:00.418Z,101719.16
2019-02-06T11:56:04.133Z,101725.48
2019-02-06T11:59:07.621Z,101713.48
2019-02-06T12:02:11.751Z,101716.66
2019-02-06T12:05:15.277Z,101713.73
2019-02-06T12:08:19.026Z,101716.03
2019-02-06T12:11:24.138Z,101704.79
2019-02-06T12:14:27.538Z,101707.88
2019-02-06T12:17:30.999Z,101702.94
2019-02-06T12:24:46.161Z,101688.25
2019-02-06T12:28:29.471Z,101674.96
2019-02-06T12:31:32.857Z,101668.95
2019-02-06T12:34:36.505Z,101649.59
2019-02-06T12:37:39.906Z,101639.02
2019-02-06T12:40:43.378Z,101632.18
2019-02-06T12:43:46.782Z,101634.92
2019-02-06T12:46:50.170Z,101631.83
2019-02-06T12:49:53.565Z,101623.07
2019-02-06T12:53:16.299Z,101615.09
2019-02-06T12:56:39.312Z,101615.00
2019-02-06T13:00:02.337Z,101611.61
2019-02-06T13:03:06.108Z,101602.89
2019-02-06T13:06:29.099Z,101596.25
2019-02-06T13:09:51.931Z,101579.70
2019-02-06T13:12:55.391Z,101579.63
2019-02-06T13:15:58.862Z,101564.22
2019-02-06T13:19:02.583Z,101564.21
2019-02-06T13:22:05.987Z,101555.02
2019-02-06T13:25:49.303Z,101558.95
2019-02-06T13:28:52.676Z,101550.47
2019-02-06T13:31:56.081Z,101544.23
2019-02-06T13:34:59.721Z,101538.20
2019-02-06T13:38:03.559Z,101533.89
2019-02-06T13:44:56.561Z,101530.90
2019-02-06T13:48:19.439Z,101527.69
2019-02-06T13:51:22.819Z,101532.16
2019-02-06T13:54:45.799Z,101533.19
2019-02-06T13:57:49.261Z,101528.56
2019-02-06T14:00:52.749Z,101519.38
2019-02-06T14:03:56.393Z,101513.52
2019-02-06T14:07:00.039Z,101512.81
2019-02-06T14:13:46.592Z,101520.64
2019-02-06T14:16:49.992Z,101514.31
2019-02-06T14:19:53.396Z,101518.53
2019-02-06T14:23:35.625Z,101514.09
2019-02-06T14:27:17.640Z,101502.49
2019-02-06T14:31:00.958Z,101499.50
2019-02-06T14:34:42.951Z,101491.91
2019-02-06T14:38:25.003Z,101484.70
2019-02-06T14:42:07.066Z,101482.23
2019-02-06T14:45:31.508Z,101488.97
2019-02-06T14:49:14.850Z,101488.72
2019-02-06T14:52:39.037Z,101480.05
2019-02-06T14:56:21.275Z,101480.02
2019-02-06T15:00:04.658Z,101487.40
2019-02-06T15:03:46.879Z,101495.68
2019-02-06T15:07:30.498Z,101492.27
2019-02-06T15:11:19.399Z,101487.78
2019-02-06T15:14:57.671Z,101488.20
2019-02-06T15:18:39.645Z,101487.17
2019-02-06T15:22:23.032Z,101486.35
2019-02-06T15:26:06.399Z,101497.28
2019-02-06T15:33:12.414Z,101495.83
2019-02-06T15:36:54.403Z,101495.19
2019-02-06T15:40:18.652Z,101502.31
2019-02-06T15:44:00.654Z,101493.33
2019-02-06T15:47:24.840Z,101491.84
2019-02-06T15:51:06.831Z,101484.11
2019-02-06T15:54:31.334Z,101472.22
2019-02-06T15:58:13.310Z,101458.66
2019-02-06T16:01:56.916Z,101455.34
2019-02-06T16:05:40.553Z,101452.69
2019-02-06T16:09:22.546Z,101449.11
2019-02-06T16:12:46.996Z,101459.98
2019-02-06T16:16:28.990Z,101444.97
2019-02-06T16:19:53.244Z,101443.83
2019-02-06T16:23:35.472Z,101432.20
2019-02-06T16:27:17.741Z,101443.76
2019-02-06T16:30:59.733Z,101445.20
2019-02-06T16:34:26.894Z,101451.22
2019-02-06T16:37:51.988Z,101456.92
2019-02-06T16:41:33.977Z,101455.37
2019-02-06T16:44:58.170Z,101448.84
2019-02-06T16:48:22.665Z,101446.73
2019-02-06T16:51:46.845Z,101449.39
2019-02-06T16:55:28.835Z,101448.44
2019-02-06T16:59:12.225Z,101451.48
2019-02-06T17:02:38.208Z,101445.09
2019-02-06T17:06:20.397Z,101434.48
2019-02-06T17:10:04.012Z,101428.49
2019-02-06T17:13:47.308Z,101420.44
2019-02-06T17:17:02.655Z,101425.16
2019-02-06T17:20:17.347Z,101416.34
2019-02-06T17:23:45.259Z,101427.13
2019-02-06T17:27:03.928Z,101423.92
2019-02-06T17:30:48.422Z,101424.34
2019-02-06T17:34:20.486Z,101414.97
2019-02-06T17:37:43.506Z,101413.27
2019-02-06T17:40:58.820Z,101395.20
2019-02-06T17:44:14.270Z,101397.42
2019-02-06T17:47:26.920Z,101383.91
2019-02-06T17:51:05.862Z,101392.73
2019-02-06T17:54:21.097Z,101401.60
2019-02-06T17:57:24.748Z,101403.13
2019-02-06T18:00:34.097Z,101405.30
2019-02-06T18:03:41.583Z,101407.69
2019-02-06T18:06:53.938Z,101403.72
2019-02-06T18:09:58.421Z,101397.97
2019-02-06T18:13:02.913Z,101401.55
2019-02-06T18:16:06.575Z,101386.69
2019-02-06T18:19:09.996Z,101381.95
2019-02-06T18:22:13.478Z,101385.95
2019-02-06T18:25:17.248Z,101386.41
2019-02-06T18:28:20.723Z,101387.70
2019-02-06T18:31:24.193Z,101390.84
2019-02-06T18:34:27.596Z,101381.86
2019-02-06T18:37:31.359Z,101373.16
2019-02-06T18:40:34.905Z,101360.53
2019-02-06T18:43:38.315Z,101365.53
2019-02-06T18:46:41.709Z,101367.10
2019-02-06T18:49:45.110Z,101365.41
2019-02-06T18:52:48.577Z,101363.70
2019-02-06T18:55:52.303Z,101364.28
2019-02-06T18:58:55.715Z,101361.31
2019-02-06T19:01:59.511Z,101349.88
2019-02-06T19:05:03.069Z,101346.23
2019-02-06T19:08:07.550Z,101346.90
2019-02-06T19:11:11.343Z,101346.98
2019-02-06T19:14:14.893Z,101349.84
2019-02-06T19:17:18.302Z,101347.73
2019-02-06T19:20:21.675Z,101349.72
2019-02-06T19:23:36.140Z,101349.31
2019-02-06T19:26:39.630Z,101343.89
2019-02-06T19:29:43.944Z,101339.41
2019-02-06T19:32:47.359Z,101335.30
2019-02-06T19:35:51.151Z,101332.72
2019-02-06T19:38:55.511Z,101343.36
2019-02-06T19:41:58.922Z,101341.69
2019-02-06T19:45:02.698Z,101329.34
2019-02-06T19:48:15.642Z,101332.25
2019-02-06T19:51:20.395Z,101331.55
2019-02-06T19:54:23.965Z,101323.54
2019-02-06T19:57:33.394Z,101320.41
2019-02-06T20:00:37.128Z,101320.69
2019-02-06T20:03:40.815Z,101315.78
2019-02-06T20:06:46.203Z,101311.02
2019-02-06T20:09:49.601Z,101307.80
2019-02-06T20:12:53.083Z,101300.21
2019-02-06T20:16:03.575Z,101296.78
2019-02-06T20:22:11.290Z,101291.44
2019-02-06T20:25:15.779Z,101294.13
2019-02-06T20:28:21.576Z,101283.19
2019-02-06T20:31:26.922Z,101276.61
2019-02-06T20:34:30.627Z,101274.72
2019-02-06T20:37:34.327Z,101277.43
2019-02-06T20:40:40.471Z,101264.63
2019-02-06T20:43:43.889Z,101268.73
2019-02-06T20:46:47.297Z,101267.84
2019-02-06T20:49:50.699Z,101259.95
2019-02-06T20:52:54.245Z,101258.00
2019-02-06T20:55:58.263Z,101253.67
2019-02-06T20:59:04.021Z,101247.70
2019-02-06T21:02:09.721Z,101239.76
2019-02-06T21:05:14.481Z,101225.43
2019-02-06T21:08:17.869Z,101229.89
2019-02-06T21:11:21.280Z,101220.78
2019-02-06T21:14:25.375Z,101215.27
2019-02-06T21:17:28.762Z,101206.19
2019-02-06T21:20:32.258Z,101207.81
2019-02-06T21:23:36.201Z,101205.09
2019-02-06T21:26:39.893Z,101209.56
2019-02-06T21:29:43.307Z,101202.73
2019-02-06T21:32:46.982Z,101200.23
2019-02-06T21:35:50.748Z,101199.33
2019-02-06T21:38:54.514Z,101197.44
2019-02-06T21:41:58.639Z,101197.08
2019-02-06T21:45:02.340Z,101193.20
2019-02-06T21:48:06.989Z,101197.77
2019-02-06T21:51:10.774Z,101197.08
2019-02-06T21:54:14.168Z,101189.34
2019-02-06T21:57:17.597Z,101188.19
2019-02-06T22:00:36.941Z,101179.84
2019-02-06T22:03:43.397Z,101175.92
2019-02-06T22:06:46.825Z,101171.64
2019-02-06T22:09:59.218Z,101173.17
2019-02-06T22:13:02.857Z,101162.34
2019-02-06T22:16:12.270Z,101165.73
2019-02-06T22:19:15.987Z,101157.64
2019-02-06T22:22:19.403Z,101159.72
2019-02-06T22:25:22.866Z,101156.34
2019-02-06T22:28:26.288Z,101145.48
2019-02-06T22:31:29.699Z,101147.02
2019-02-06T22:34:33.399Z,101140.25
2019-02-06T22:37:36.879Z,101138.11
2019-02-06T22:40:40.295Z,101139.04
2019-02-06T22:43:43.921Z,101137.92
2019-02-06T22:46:47.327Z,101133.91
2019-02-06T22:49:50.816Z,101130.91
2019-02-06T22:52:54.257Z,101137.61
2019-02-06T22:55:57.649Z,101137.84
2019-02-06T22:59:01.051Z,101138.31
2019-02-06T23:02:05.633Z,101132.06
2019-02-06T23:05:09.551Z,101125.77
2019-02-06T23:08:12.985Z,101121.65
2019-02-06T23:11:16.749Z,101116.27
2019-02-06T23:14:23.158Z,101114.13
2019-02-06T23:17:26.779Z,101107.53
2019-02-06T23:20:30.258Z,101109.23
2019-02-06T23:23:33.734Z,101096.95
2019-02-06T23:26:37.219Z,101102.69
2019-02-06T23:29:40.612Z,101106.59
2019-02-06T23:32:44.273Z,101101.30
2019-02-06T23:35:47.672Z,101088.92
2019-02-06T23:38:51.072Z,101084.18
2019-02-06T23:41:54.744Z,101074.27
2019-02-06T23:44:58.142Z,101059.45
2019-02-06T23:48:01.567Z,101050.41
2019-02-06T23:51:45.151Z,101051.41
2019-02-06T23:54:48.544Z,101045.33
2019-02-06T23:57:51.948Z,101034.41
